Time;durP1;ratioP1;P1;durP2;ratioP2;P2;SDS_P1;SDS_P2;PMS_P1;PMS_P2;Temp;Humidity;BMP_temperature;BMP_pressure;BME280_temperature;BME280_humidity;BME280_pressure;Samples;Min_cycle;Max_cycle;Signal;HPM_P1;HPM_P2
2021/06/08 00:00:26;;;;;;;7.80;4.10;;;13.10;99.90;;;;;;4827657;29;20029;-94
2021/06/08 00:02:54;;;;;;;7.35;4.25;;;13.00;99.90;;;;;;4827392;29;20049;-93
2021/06/08 00:05:20;;;;;;;8.13;3.72;;;12.90;99.90;;;;;;4827790;29;20493;-93
2021/06/08 00:07:46;;;;;;;5.70;3.53;;;12.80;99.90;;;;;;4828002;29;20041;-94
2021/06/08 00:10:13;;;;;;;9.05;3.75;;;12.80;99.90;;;;;;4827388;29;20104;-94
2021/06/08 00:12:42;;;;;;;15.88;4.13;;;12.70;99.90;;;;;;4829450;29;20037;-93
2021/06/08 00:15:10;;;;;;;5.13;3.70;;;12.60;99.90;;;;;;4831383;29;20194;-93
2021/06/08 00:17:36;;;;;;;7.40;3.97;;;12.60;99.90;;;;;;4831285;29;20116;-93
2021/06/08 00:20:06;;;;;;;6.65;3.85;;;12.50;99.90;;;;;;4829935;29;20061;-94
2021/06/08 00:22:33;;;;;;;7.57;3.88;;;12.50;99.90;;;;;;4814346;29;20030;-94
2021/06/08 00:25:00;;;;;;;7.65;3.50;;;12.40;99.90;;;;;;4829182;29;20038;-94
2021/06/08 06:54:24;;;;;;;15.38;8.70;;;11.60;99.90;;;;;;5107823;23;20081;-93
2021/06/08 06:56:50;;;;;;;14.88;8.65;;;11.80;99.90;;;;;;4887340;29;20068;-93
2021/06/08 06:59:17;;;;;;;16.75;7.40;;;11.90;99.90;;;;;;4879229;29;20021;-92
2021/06/08 07:01:45;;;;;;;17.05;8.75;;;12.10;99.90;;;;;;4882570;29;20027;-93
2021/06/08 07:04:12;;;;;;;16.98;8.55;;;12.20;99.90;;;;;;4895174;29;20040;-93
2021/06/08 07:06:41;;;;;;;13.70;6.97;;;12.30;99.90;;;;;;4881802;29;20084;-93
2021/06/08 07:09:09;;;;;;;16.10;8.48;;;12.40;99.90;;;;;;4891725;29;20048;-93
2021/06/08 07:11:37;;;;;;;14.52;8.30;;;12.60;99.90;;;;;;4892961;29;20035;-93
2021/06/08 07:14:05;;;;;;;14.32;8.13;;;12.70;99.90;;;;;;4870529;29;20033;-93
2021/06/08 07:16:31;;;;;;;10.88;7.90;;;12.80;99.90;;;;;;4889737;29;20025;-95
2021/06/08 07:18:57;;;;;;;11.88;7.72;;;12.90;99.90;;;;;;4887367;29;20036;-94
2021/06/08 07:21:24;;;;;;;14.23;7.80;;;13.10;99.90;;;;;;4886123;29;20028;-93
2021/06/08 07:23:54;;;;;;;20.35;8.52;;;13.20;99.90;;;;;;4888074;29;20037;-94
2021/06/08 07:26:26;;;;;;;13.70;7.47;;;13.30;99.90;;;;;;4888376;29;20028;-94
2021/06/08 07:28:54;;;;;;;16.35;8.95;;;13.40;99.90;;;;;;4891833;29;20491;-92
2021/06/08 07:31:51;;;;;;;13.90;7.43;;;13.50;99.90;;;;;;4897362;29;20076;-94
2021/06/08 07:34:34;;;;;;;14.00;7.30;;;13.60;99.90;;;;;;4888743;29;20040;-94
2021/06/08 07:37:09;;;;;;;15.27;7.28;;;13.70;99.90;;;;;;4897900;29;20036;-95
2021/06/08 07:39:47;;;;;;;8.57;6.18;;;13.80;99.90;;;;;;4884081;29;20035;-95
2021/06/08 07:42:22;;;;;;;10.45;5.68;;;13.90;99.90;;;;;;4885495;29;20119;-94
2021/06/08 07:45:13;;;;;;;12.32;6.18;;;14.10;99.90;;;;;;4885854;29;20037;-95
2021/06/08 07:47:51;;;;;;;8.30;4.20;;;14.30;99.90;;;;;;4911954;29;20040;-96
2021/06/08 08:57:46;;;;;;;11.20;3.90;;;17.50;95.10;;;;;;4945267;23;20092;-94
2021/06/08 09:00:14;;;;;;;8.63;3.15;;;17.60;94.60;;;;;;4862592;29;20034;-95
2021/06/08 09:02:40;;;;;;;8.43;2.83;;;17.80;94.10;;;;;;4865555;29;20032;-94
2021/06/08 09:05:12;;;;;;;11.43;3.03;;;18.00;93.40;;;;;;4871997;29;20029;-94
2021/06/08 09:07:39;;;;;;;3.63;2.40;;;18.10;92.80;;;;;;4888573;29;20025;-96
2021/06/08 09:10:09;;;;;;;6.07;2.50;;;18.30;92.50;;;;;;4867004;29;20033;-93
2021/06/08 09:12:38;;;;;;;8.10;3.17;;;18.50;91.90;;;;;;4879037;29;20028;-95
2021/06/08 09:15:05;;;;;;;7.47;2.88;;;18.60;90.90;;;;;;4845797;29;20127;-94
2021/06/08 09:17:39;;;;;;;5.57;3.38;;;18.70;90.00;;;;;;4843335;29;20052;-95
2021/06/08 09:20:08;;;;;;;7.15;2.53;;;18.80;89.00;;;;;;4842996;29;20057;-95
2021/06/08 09:22:54;;;;;;;5.00;2.50;;;19.00;87.30;;;;;;4851254;29;20050;-95
2021/06/08 09:25:43;;;;;;;5.97;2.97;;;19.10;84.90;;;;;;4842710;29;20038;-94
2021/06/08 09:28:44;;;;;;;5.57;2.13;;;19.10;84.00;;;;;;4861334;29;20033;-96
2021/06/08 09:34:32;;;;;;;8.50;2.50;;;19.40;82.90;;;;;;4860701;29;19985;-95
2021/06/08 09:37:05;;;;;;;6.35;2.80;;;19.50;81.90;;;;;;4827964;29;20042;-95
2021/06/08 09:39:32;;;;;;;9.32;3.20;;;19.70;81.50;;;;;;4843570;29;20026;-96
2021/06/08 09:41:57;;;;;;;4.80;2.65;;;19.70;80.30;;;;;;4843857;29;20038;-95
2021/06/08 09:47:26;;;;;;;;;;;19.90;78.70;;;;;;4824200;29;20039;-96
2021/06/08 09:49:52;;;;;;;9.68;2.75;;;20.00;78.00;;;;;;4806786;29;19939;-95
2021/06/08 09:52:19;;;;;;;7.60;2.78;;;20.00;76.20;;;;;;4824761;29;20051;-94
2021/06/08 09:54:52;;;;;;;9.00;3.35;;;20.00;75.50;;;;;;4806117;29;20038;-94
2021/06/08 09:57:33;;;;;;;7.70;3.25;;;20.10;75.40;;;;;;4817417;29;20058;-95
2021/06/08 10:03:55;;;;;;;7.93;2.97;;;20.40;75.00;;;;;;4838599;29;20528;-94
2021/06/08 10:06:27;;;;;;;8.75;3.05;;;20.60;74.00;;;;;;4824410;29;20065;-94
2021/06/08 10:09:02;;;;;;;4.90;2.70;;;20.60;72.50;;;;;;4840324;29;20027;-93
2021/06/08 10:14:52;;;;;;;6.07;2.58;;;20.70;71.10;;;;;;4838845;29;20037;-94
2021/06/08 10:27:20;;;;;;;7.95;2.30;;;20.90;69.60;;;;;;4873089;29;20081;-94
2021/06/08 10:29:48;;;;;;;5.88;2.00;;;21.00;69.10;;;;;;4870925;29;20434;-95
2021/06/08 10:32:13;;;;;;;6.75;1.92;;;21.10;68.80;;;;;;4856742;29;20026;-95
2021/06/08 10:34:42;;;;;;;5.28;1.77;;;21.30;68.30;;;;;;4856905;29;20468;-95
2021/06/08 10:37:49;;;;;;;3.88;1.85;;;21.60;68.00;;;;;;4846681;29;20045;-96
2021/06/08 10:40:26;;;;;;;7.78;2.70;;;21.90;66.80;;;;;;4881513;29;20032;-95
2021/06/08 10:42:53;;;;;;;6.88;2.30;;;22.10;66.20;;;;;;4858996;29;20029;-94
2021/06/08 10:45:21;;;;;;;5.00;2.53;;;22.30;65.50;;;;;;4857131;29;20061;-96
2021/06/08 10:48:04;;;;;;;6.00;2.40;;;22.40;63.20;;;;;;4859960;29;20054;-96
2021/06/08 10:50:37;;;;;;;6.05;2.45;;;22.40;62.50;;;;;;4873145;29;20060;-96
2021/06/08 10:53:05;;;;;;;6.97;2.45;;;22.40;61.40;;;;;;4855807;29;20037;-96
2021/06/08 10:55:41;;;;;;;10.93;2.92;;;22.40;61.30;;;;;;4856260;29;20041;-96
2021/06/08 10:58:10;;;;;;;4.30;2.20;;;22.40;61.30;;;;;;4841453;29;20083;-96
2021/06/08 11:00:52;;;;;;;3.58;2.15;;;22.50;61.80;;;;;;4859253;29;20037;-96
2021/06/08 11:04:04;;;;;;;4.70;2.40;;;22.60;60.70;;;;;;4864523;29;20029;-96
2021/06/08 11:07:04;;;;;;;3.33;1.95;;;22.70;59.80;;;;;;4807293;29;20035;-96
2021/06/08 15:46:41;;;;;;;2.95;1.30;;;27.30;42.80;;;;;;5157438;23;20412;-94
2021/06/08 15:49:07;;;;;;;1.67;1.20;;;27.40;42.80;;;;;;4884639;29;20037;-91
2021/06/08 15:51:37;;;;;;;1.42;1.05;;;27.30;43.10;;;;;;4879429;29;21115;-91
2021/06/08 15:54:07;;;;;;;1.33;1.23;;;27.30;43.40;;;;;;4895253;29;20043;-91
2021/06/08 15:56:38;;;;;;;2.15;1.30;;;27.20;43.70;;;;;;4884047;29;20277;-92
2021/06/08 15:59:05;;;;;;;5.10;2.10;;;27.10;44.20;;;;;;4884773;29;20495;-91
2021/06/08 16:01:31;;;;;;;4.00;1.50;;;26.80;44.60;;;;;;4888586;29;20036;-92
2021/06/08 16:03:56;;;;;;;1.98;1.30;;;26.60;44.80;;;;;;4888607;29;20039;-90
2021/06/08 16:06:22;;;;;;;2.28;1.27;;;26.50;45.00;;;;;;4888906;29;20040;-89
2021/06/08 16:08:48;;;;;;;4.10;1.70;;;26.50;45.20;;;;;;4906304;29;20071;-92
2021/06/08 16:11:16;;;;;;;2.42;1.20;;;26.40;45.50;;;;;;4890651;29;20028;-92
2021/06/08 16:13:42;;;;;;;1.10;1.00;;;26.40;45.80;;;;;;4908974;29;20108;-92
2021/06/08 16:16:08;;;;;;;3.40;1.20;;;26.40;46.00;;;;;;4893547;29;20077;-91
2021/06/08 16:18:35;;;;;;;1.70;1.38;;;26.30;46.20;;;;;;4898246;29;20041;-90
2021/06/08 16:21:02;;;;;;;1.60;0.93;;;26.30;45.90;;;;;;4909805;29;20032;-90
2021/06/08 16:23:27;;;;;;;1.30;1.13;;;26.30;46.10;;;;;;4892849;29;20514;-90
2021/06/08 16:25:53;;;;;;;3.40;1.02;;;26.10;46.40;;;;;;4891720;29;20122;-90
2021/06/08 16:28:19;;;;;;;2.38;1.15;;;26.00;46.70;;;;;;4909323;29;20021;-91
2021/06/08 16:30:44;;;;;;;3.38;1.48;;;26.00;46.90;;;;;;4892080;29;20032;-89
2021/06/08 16:33:10;;;;;;;2.88;1.10;;;26.10;46.90;;;;;;4897533;29;20079;-91
2021/06/08 16:35:36;;;;;;;2.97;1.20;;;26.10;47.00;;;;;;4910808;29;20035;-92
2021/06/08 16:38:02;;;;;;;1.27;0.93;;;26.20;47.20;;;;;;4895335;29;20035;-90
2021/06/08 16:40:28;;;;;;;1.42;1.17;;;26.10;46.70;;;;;;4895211;29;20143;-91
2021/06/08 16:42:53;;;;;;;2.35;0.90;;;25.90;46.60;;;;;;4895320;29;20479;-91
2021/06/08 16:45:19;;;;;;;2.88;1.25;;;25.70;46.90;;;;;;4907260;29;20048;-91
2021/06/08 16:47:45;;;;;;;3.38;1.33;;;25.70;46.90;;;;;;4892947;29;20546;-91
2021/06/08 16:50:11;;;;;;;3.40;1.40;;;25.80;47.10;;;;;;4892884;29;20064;-91
2021/06/08 16:55:24;;;;;;;5.32;1.50;;;25.90;47.80;;;;;;4909250;29;20039;-91
2021/06/08 16:57:50;;;;;;;2.20;1.20;;;25.80;47.60;;;;;;4893564;29;20096;-92
2021/06/08 17:00:17;;;;;;;1.77;1.10;;;25.80;47.80;;;;;;4894458;29;20482;-92
2021/06/08 17:02:42;;;;;;;2.35;1.38;;;25.80;48.10;;;;;;4894137;29;20036;-91
2021/06/08 17:05:08;;;;;;;3.70;1.15;;;25.70;48.00;;;;;;4901320;29;20080;-90
2021/06/08 17:07:34;;;;;;;6.30;1.30;;;25.50;47.90;;;;;;4914953;29;20036;-91
2021/06/08 17:10:00;;;;;;;3.38;1.27;;;25.20;48.10;;;;;;4911624;29;20039;-91
2021/06/08 17:12:26;;;;;;;0.80;0.80;;;25.00;48.80;;;;;;4905152;29;20250;-91
2021/06/08 17:14:52;;;;;;;1.63;1.20;;;25.00;49.20;;;;;;4907027;29;20052;-92
2021/06/08 17:17:17;;;;;;;4.32;1.10;;;25.10;49.30;;;;;;4913176;29;20028;-91
2021/06/08 17:19:46;;;;;;;2.15;1.00;;;25.20;49.20;;;;;;4912530;29;20036;-91
2021/06/08 17:22:12;;;;;;;2.95;1.20;;;25.20;49.00;;;;;;4913026;29;20044;-91
2021/06/08 17:24:40;;;;;;;3.17;1.40;;;25.20;48.90;;;;;;4911988;29;20039;-91
2021/06/08 17:27:07;;;;;;;3.20;1.10;;;25.00;48.50;;;;;;4913055;29;20040;-92
2021/06/08 17:29:33;;;;;;;2.00;1.00;;;24.90;48.80;;;;;;4911099;29;20028;-93
2021/06/08 17:31:59;;;;;;;3.45;1.30;;;24.70;48.80;;;;;;4911770;29;20056;-93
2021/06/08 17:34:25;;;;;;;3.30;1.83;;;24.70;49.00;;;;;;4923046;29;20123;-91
2021/06/08 17:36:51;;;;;;;3.38;0.90;;;24.80;49.20;;;;;;4910939;29;20410;-92
2021/06/08 17:39:16;;;;;;;1.70;0.95;;;24.90;49.40;;;;;;4911802;29;20087;-92
2021/06/08 17:41:45;;;;;;;1.48;0.93;;;24.80;49.00;;;;;;4911407;29;20036;-94
2021/06/08 17:44:11;;;;;;;1.63;1.25;;;24.70;48.90;;;;;;4911190;29;20032;-91
2021/06/08 17:46:36;;;;;;;1.80;1.08;;;24.60;49.10;;;;;;4912396;29;20041;-91
2021/06/08 17:49:02;;;;;;;1.33;0.90;;;24.60;49.10;;;;;;4890301;29;20073;-92
2021/06/08 17:51:28;;;;;;;3.45;1.40;;;24.60;49.30;;;;;;4889794;29;20080;-88
2021/06/08 17:53:54;;;;;;;1.83;1.15;;;24.60;49.70;;;;;;4903337;29;20483;-90
2021/06/08 17:56:20;;;;;;;1.55;1.02;;;24.70;50.30;;;;;;4885619;29;20049;-90
2021/06/08 17:58:46;;;;;;;3.75;1.20;;;24.60;49.90;;;;;;4901401;29;20029;-90
2021/06/08 18:01:11;;;;;;;5.70;1.42;;;24.70;50.40;;;;;;4905349;29;20114;-88
2021/06/08 18:03:37;;;;;;;2.88;1.17;;;24.60;50.00;;;;;;4905317;29;20483;-90
2021/06/08 18:06:03;;;;;;;1.90;1.00;;;24.40;50.20;;;;;;4904385;29;20850;-89
2021/06/08 18:08:31;;;;;;;2.80;1.25;;;24.30;50.60;;;;;;4904852;29;20080;-90
2021/06/08 18:10:57;;;;;;;2.70;1.10;;;24.20;50.70;;;;;;4904729;29;20083;-89
2021/06/08 18:13:23;;;;;;;3.30;1.10;;;24.20;50.80;;;;;;4906424;29;20099;-91
2021/06/08 18:15:51;;;;;;;5.30;1.20;;;24.10;50.80;;;;;;4900509;29;20058;-91
2021/06/08 18:18:35;;;;;;;2.65;1.10;;;24.10;50.90;;;;;;4903978;29;20039;-92
2021/06/08 18:21:04;;;;;;;3.50;1.20;;;24.10;51.10;;;;;;4886496;29;20029;-90
2021/06/08 18:23:32;;;;;;;7.38;1.40;;;24.10;51.30;;;;;;4905522;29;20506;-91
2021/06/08 18:26:02;;;;;;;3.28;1.27;;;24.10;51.30;;;;;;4906650;29;20605;-92
2021/06/08 18:28:29;;;;;;;1.95;1.15;;;24.10;51.30;;;;;;4906633;29;20052;-90
2021/06/08 18:30:56;;;;;;;1.90;1.10;;;24.00;51.20;;;;;;4890008;29;20077;-93
2021/06/08 18:33:26;;;;;;;2.60;1.15;;;24.00;51.20;;;;;;4889296;29;20084;-93
2021/06/08 18:35:51;;;;;;;3.60;1.20;;;24.10;51.60;;;;;;4890033;29;20029;-90
2021/06/08 18:38:18;;;;;;;1.73;1.33;;;24.00;51.60;;;;;;4899268;29;20020;-89
2021/06/08 18:40:45;;;;;;;7.07;1.25;;;23.90;51.90;;;;;;4918288;29;20048;-89
2021/06/08 18:43:11;;;;;;;2.90;1.30;;;23.90;52.20;;;;;;4939189;29;20032;-91
2021/06/08 18:45:40;;;;;;;2.08;1.30;;;23.90;52.50;;;;;;4921058;29;20056;-89
2021/06/08 18:48:06;;;;;;;5.68;1.40;;;23.80;52.60;;;;;;4906166;29;20402;-91
2021/06/08 18:50:31;;;;;;;7.00;1.27;;;23.80;52.90;;;;;;4905377;29;20087;-92
2021/06/08 18:52:59;;;;;;;3.75;1.00;;;23.70;53.00;;;;;;4905246;29;20052;-91
2021/06/08 18:55:25;;;;;;;4.00;1.50;;;23.60;53.30;;;;;;4905491;29;20032;-90
2021/06/08 18:57:50;;;;;;;1.40;1.23;;;23.50;53.60;;;;;;4903865;29;20060;-89
2021/06/08 19:00:17;;;;;;;1.63;1.00;;;23.40;53.70;;;;;;4903378;29;20534;-90
2021/06/08 19:02:42;;;;;;;1.75;1.25;;;23.40;54.10;;;;;;4894884;29;20037;-90
2021/06/08 19:05:08;;;;;;;1.65;1.10;;;23.40;54.40;;;;;;4894932;29;20047;-90
2021/06/08 19:07:34;;;;;;;2.13;1.10;;;23.30;54.70;;;;;;4886655;29;20025;-90
2021/06/08 19:10:00;;;;;;;3.58;1.60;;;23.20;55.10;;;;;;4893989;29;20095;-90
2021/06/08 19:12:26;;;;;;;2.30;1.60;;;23.10;55.20;;;;;;4893996;29;20466;-92
2021/06/08 19:15:00;;;;;;;2.53;1.38;;;23.10;55.40;;;;;;4897681;29;20054;-91
2021/06/08 19:17:26;;;;;;;3.67;1.40;;;23.10;55.60;;;;;;4908968;29;20036;-91
2021/06/08 19:19:52;;;;;;;3.75;1.40;;;23.00;55.80;;;;;;4904711;29;20031;-90
2021/06/08 19:22:18;;;;;;;4.28;1.33;;;22.90;56.00;;;;;;4909911;29;20017;-91
2021/06/08 19:24:45;;;;;;;3.17;1.35;;;22.80;56.20;;;;;;4889313;29;20542;-92
2021/06/08 19:27:11;;;;;;;3.55;1.15;;;22.80;56.50;;;;;;4897266;29;20083;-91
2021/06/08 19:29:36;;;;;;;2.15;1.20;;;22.80;56.80;;;;;;4903079;29;20036;-90
2021/06/08 19:32:02;;;;;;;1.65;1.20;;;22.70;57.00;;;;;;4900137;29;20025;-91
2021/06/08 19:34:28;;;;;;;2.38;1.50;;;22.60;57.30;;;;;;4907032;29;20040;-91
2021/06/08 19:36:54;;;;;;;4.35;1.20;;;22.60;57.50;;;;;;4890650;29;20024;-90
2021/06/08 19:39:19;;;;;;;3.40;1.65;;;22.50;57.80;;;;;;4904525;29;20036;-90
2021/06/08 19:41:45;;;;;;;5.97;1.52;;;22.40;58.10;;;;;;4903498;29;20474;-89
2021/06/08 19:44:11;;;;;;;3.80;1.33;;;22.40;58.40;;;;;;4894268;29;20521;-88
2021/06/08 19:46:37;;;;;;;3.45;1.17;;;22.30;58.60;;;;;;4906337;29;20508;-89
2021/06/08 19:49:03;;;;;;;5.25;1.38;;;22.30;58.90;;;;;;4924599;29;20036;-90
2021/06/08 19:51:34;;;;;;;1.17;1.08;;;22.30;59.20;;;;;;4907282;29;20579;-90
2021/06/08 19:54:02;;;;;;;5.00;1.38;;;22.20;59.60;;;;;;4929398;29;20054;-88
2021/06/08 19:56:28;;;;;;;2.80;1.60;;;22.20;59.80;;;;;;4920035;29;20434;-89
2021/06/08 19:58:53;;;;;;;4.80;1.65;;;22.20;60.10;;;;;;4904167;29;20067;-91
2021/06/08 20:01:19;;;;;;;1.30;1.20;;;22.10;60.30;;;;;;4898901;29;20039;-91
2021/06/08 20:03:45;;;;;;;3.15;1.60;;;22.10;60.70;;;;;;4889398;29;20033;-91
2021/06/08 20:06:11;;;;;;;3.33;1.40;;;22.10;61.20;;;;;;4888923;29;20031;-91
2021/06/08 20:08:37;;;;;;;5.53;1.70;;;22.00;61.50;;;;;;4889923;29;20514;-90
2021/06/08 20:11:05;;;;;;;2.88;1.65;;;21.90;62.00;;;;;;4916939;29;20489;-90
2021/06/08 20:13:31;;;;;;;2.38;1.40;;;21.80;62.40;;;;;;4917378;29;20028;-90
2021/06/08 20:15:57;;;;;;;4.20;1.50;;;21.70;62.70;;;;;;4901649;29;20039;-90
2021/06/08 20:18:23;;;;;;;2.15;1.15;;;21.60;63.00;;;;;;4921462;29;20028;-89
2021/06/08 20:20:49;;;;;;;4.63;1.40;;;21.50;63.30;;;;;;4900399;29;20130;-90
2021/06/08 20:23:15;;;;;;;2.67;1.23;;;21.40;63.60;;;;;;4900359;29;20491;-90
2021/06/08 20:25:41;;;;;;;1.67;1.30;;;21.30;63.90;;;;;;4900661;29;20032;-89
2021/06/08 20:28:06;;;;;;;3.35;1.55;;;21.20;64.20;;;;;;4900646;29;20032;-89
2021/06/08 20:30:32;;;;;;;3.70;1.38;;;21.10;64.40;;;;;;4900737;29;20035;-89
2021/06/08 20:32:57;;;;;;;1.60;1.45;;;21.10;64.70;;;;;;4930777;29;20028;-89
2021/06/08 20:35:23;;;;;;;2.22;1.40;;;21.00;65.80;;;;;;4936119;29;20023;-90
2021/06/08 20:37:49;;;;;;;2.38;1.50;;;20.90;65.20;;;;;;4919398;29;20031;-90
2021/06/08 20:40:18;;;;;;;2.45;1.40;;;20.80;65.50;;;;;;4934570;29;20034;-89
2021/06/08 20:42:44;;;;;;;3.20;1.40;;;20.70;65.80;;;;;;4900254;29;20115;-89
2021/06/08 20:45:10;;;;;;;3.03;1.45;;;20.60;66.00;;;;;;4900032;29;20040;-90
2021/06/08 20:47:38;;;;;;;4.55;1.50;;;20.50;66.30;;;;;;4920500;29;20028;-90
2021/06/08 20:50:06;;;;;;;3.38;1.60;;;20.50;66.50;;;;;;4903913;29;20028;-90
2021/06/08 20:52:32;;;;;;;2.15;1.33;;;20.40;66.80;;;;;;4919067;29;20028;-88
2021/06/08 20:54:57;;;;;;;1.88;1.67;;;20.30;67.10;;;;;;4904903;29;20032;-89
2021/06/08 20:57:23;;;;;;;2.53;1.58;;;20.20;67.40;;;;;;4904793;29;20117;-89
2021/06/08 20:59:50;;;;;;;2.53;1.60;;;20.10;67.70;;;;;;4900908;29;20041;-90
2021/06/08 21:02:16;;;;;;;4.03;1.70;;;20.00;68.00;;;;;;4921090;29;20108;-91
2021/06/08 21:04:43;;;;;;;3.10;1.48;;;19.90;68.20;;;;;;4897338;29;20098;-92
2021/06/08 21:07:08;;;;;;;4.60;2.20;;;19.80;68.30;;;;;;4902458;29;20115;-91
2021/06/08 21:09:34;;;;;;;4.65;1.70;;;19.60;68.70;;;;;;4894602;29;20060;-91
2021/06/08 21:12:00;;;;;;;5.60;1.85;;;19.40;69.30;;;;;;4913790;29;20032;-90
2021/06/08 21:14:26;;;;;;;2.88;1.75;;;19.20;69.80;;;;;;4903123;29;20029;-91
2021/06/08 21:16:52;;;;;;;2.67;1.73;;;19.00;70.30;;;;;;4900457;29;20028;-92
2021/06/08 21:19:17;;;;;;;6.95;1.77;;;18.80;70.90;;;;;;4918396;29;20490;-91
2021/06/08 21:21:43;;;;;;;2.20;1.80;;;18.60;71.50;;;;;;4897882;29;20028;-91
2021/06/08 21:24:10;;;;;;;2.90;1.77;;;18.50;72.00;;;;;;4897047;29;20039;-92
2021/06/08 21:26:36;;;;;;;1.85;1.70;;;18.40;72.50;;;;;;4890007;29;20035;-91
2021/06/08 21:29:06;;;;;;;4.00;1.80;;;18.20;72.80;;;;;;4897368;29;20122;-91
2021/06/08 21:31:32;;;;;;;3.53;1.85;;;18.10;73.40;;;;;;4877524;29;20036;-91
2021/06/08 21:33:58;;;;;;;3.05;1.83;;;17.90;73.80;;;;;;4904036;29;20036;-91
2021/06/08 21:36:24;;;;;;;3.22;1.80;;;17.80;74.20;;;;;;4899272;29;20125;-90
2021/06/08 21:38:50;;;;;;;2.60;2.20;;;17.70;74.70;;;;;;4894802;29;20120;-92
2021/06/08 21:41:15;;;;;;;2.95;1.83;;;17.60;75.20;;;;;;4893864;29;20035;-92
2021/06/08 21:43:41;;;;;;;3.67;1.98;;;17.50;75.60;;;;;;4895701;29;20082;-92
2021/06/08 21:46:07;;;;;;;4.22;2.10;;;17.50;76.00;;;;;;4901562;29;20048;-91
2021/06/08 21:48:33;;;;;;;4.15;2.15;;;17.40;76.30;;;;;;4897865;29;20035;-90
2021/06/08 21:50:59;;;;;;;5.53;1.90;;;17.30;76.70;;;;;;4912161;29;20036;-91
2021/06/08 21:53:25;;;;;;;2.75;1.92;;;17.20;77.00;;;;;;4904893;29;20029;-91
2021/06/08 21:55:51;;;;;;;3.63;2.45;;;17.10;77.40;;;;;;4903577;29;20055;-90
2021/06/08 21:58:17;;;;;;;5.45;2.17;;;17.10;77.80;;;;;;4901178;29;20032;-90
2021/06/08 22:00:43;;;;;;;2.63;2.25;;;17.00;78.10;;;;;;4894933;29;20035;-89
2021/06/08 22:03:11;;;;;;;3.55;2.30;;;17.00;78.40;;;;;;4901818;29;20028;-90
2021/06/08 22:05:37;;;;;;;5.40;2.30;;;17.00;78.60;;;;;;4918711;29;20036;-91
2021/06/08 22:08:04;;;;;;;3.60;2.28;;;16.90;78.90;;;;;;4907310;29;20089;-91
2021/06/08 22:10:30;;;;;;;3.05;2.20;;;16.90;79.30;;;;;;4904399;29;20034;-90
2021/06/08 22:12:56;;;;;;;6.88;2.40;;;16.80;79.60;;;;;;4920699;29;20035;-92
2021/06/08 22:15:22;;;;;;;2.42;1.85;;;16.80;80.00;;;;;;4912272;29;20024;-91
2021/06/08 22:17:48;;;;;;;5.97;2.40;;;16.70;80.40;;;;;;4922776;29;20028;-90
2021/06/08 22:20:14;;;;;;;7.30;2.05;;;16.70;80.70;;;;;;4900441;29;20092;-89
2021/06/08 22:22:41;;;;;;;3.63;2.58;;;16.60;81.00;;;;;;4912136;29;20042;-90
2021/06/08 22:25:08;;;;;;;4.95;2.60;;;16.60;81.40;;;;;;4905556;29;20509;-90
2021/06/08 22:27:36;;;;;;;2.53;2.25;;;16.50;82.00;;;;;;4898125;29;20028;-90
2021/06/08 22:30:04;;;;;;;5.10;2.15;;;16.40;82.60;;;;;;4896654;29;20051;-88
2021/06/08 22:32:33;;;;;;;3.08;2.50;;;16.40;83.20;;;;;;4899632;29;20454;-90
2021/06/08 22:34:59;;;;;;;2.85;2.13;;;16.30;83.80;;;;;;4907956;29;20024;-90
2021/06/08 22:37:25;;;;;;;5.70;2.55;;;16.20;84.20;;;;;;4899117;29;20044;-88
2021/06/08 22:39:51;;;;;;;4.57;2.20;;;16.20;84.80;;;;;;4908752;29;20039;-89
2021/06/08 22:42:17;;;;;;;2.50;2.30;;;16.10;85.20;;;;;;4901048;29;20028;-90
2021/06/08 22:44:42;;;;;;;5.85;2.50;;;16.00;85.60;;;;;;4906927;29;20114;-91
2021/06/08 22:47:08;;;;;;;3.08;2.28;;;15.90;86.10;;;;;;4910311;29;20052;-90
2021/06/08 22:49:34;;;;;;;3.78;2.75;;;15.70;86.80;;;;;;4906192;29;20035;-91
2021/06/08 22:52:00;;;;;;;4.22;2.60;;;15.60;87.50;;;;;;4907755;29;20106;-90
2021/06/08 22:54:26;;;;;;;4.85;2.70;;;15.60;88.20;;;;;;4913951;29;20028;-91
2021/06/08 22:56:54;;;;;;;5.32;2.47;;;15.50;88.80;;;;;;4906415;29;20027;-90
2021/06/08 22:59:22;;;;;;;2.72;2.30;;;15.50;89.40;;;;;;4909248;29;20028;-90
2021/06/08 23:01:48;;;;;;;4.28;2.40;;;15.40;89.90;;;;;;4922953;29;20028;-90
2021/06/08 23:04:14;;;;;;;4.07;2.65;;;15.30;90.20;;;;;;4914747;29;20067;-89
2021/06/08 23:06:41;;;;;;;3.35;2.67;;;15.30;90.40;;;;;;4914056;29;20056;-90
2021/06/08 23:09:07;;;;;;;4.13;3.08;;;15.20;90.70;;;;;;4919803;29;20048;-90
2021/06/08 23:11:32;;;;;;;4.40;3.40;;;15.20;90.90;;;;;;4930728;29;20035;-91
2021/06/08 23:14:01;;;;;;;3.97;2.90;;;15.10;91.20;;;;;;4931621;29;20028;-90
2021/06/08 23:16:27;;;;;;;5.88;3.15;;;15.00;91.40;;;;;;4928473;29;20059;-91
2021/06/08 23:18:53;;;;;;;7.13;3.53;;;15.00;91.80;;;;;;4922495;29;20020;-90
2021/06/08 23:21:21;;;;;;;5.47;3.00;;;15.00;92.10;;;;;;4926192;29;20038;-90
2021/06/08 23:23:47;;;;;;;3.40;3.10;;;14.90;92.40;;;;;;4930302;29;20031;-92
2021/06/08 23:26:15;;;;;;;7.57;3.00;;;14.80;92.70;;;;;;4928217;29;20039;-91
2021/06/08 23:28:41;;;;;;;3.55;2.97;;;14.80;93.00;;;;;;4930944;29;20101;-91
2021/06/08 23:31:06;;;;;;;3.97;3.13;;;14.70;93.40;;;;;;4929071;29;20495;-90
2021/06/08 23:33:32;;;;;;;6.57;3.60;;;14.60;93.80;;;;;;4929740;29;20090;-90
2021/06/08 23:35:58;;;;;;;4.35;3.05;;;14.50;94.10;;;;;;4929534;29;20023;-92
2021/06/08 23:38:23;;;;;;;6.88;3.35;;;14.40;94.50;;;;;;4929317;29;20036;-90
2021/06/08 23:40:49;;;;;;;4.72;3.20;;;14.30;95.10;;;;;;4927252;29;20036;-90
2021/06/08 23:43:15;;;;;;;4.82;3.60;;;14.30;95.60;;;;;;4925044;29;20031;-91
2021/06/08 23:45:42;;;;;;;5.47;3.33;;;14.20;96.00;;;;;;4925088;29;20056;-91
2021/06/08 23:48:08;;;;;;;6.15;3.20;;;14.20;96.40;;;;;;4924086;29;20032;-92
2021/06/08 23:50:33;;;;;;;5.75;3.30;;;14.10;96.80;;;;;;4924524;29;20039;-90
2021/06/08 23:53:00;;;;;;;6.22;4.10;;;14.00;97.20;;;;;;4924459;29;20028;-90
2021/06/08 23:55:27;;;;;;;5.55;3.65;;;14.00;97.70;;;;;;4941870;29;20028;-90
2021/06/08 23:57:53;;;;;;;4.82;3.53;;;14.00;98.10;;;;;;4941083;29;20035;-90
